Time;durP1;ratioP1;P1;durP2;ratioP2;P2;SDS_P1;SDS_P2;PMS_P1;PMS_P2;Temp;Humidity;BMP_temperature;BMP_pressure;BME280_temperature;BME280_humidity;BME280_pressure;Samples;Min_cycle;Max_cycle;Signal;HPM_P1;HPM_P2
2021/06/27 00:00:26;;;;;;;33.50;21.38;;;17.30;99.90;;;;;;5014554;28;20473;-71
2021/06/27 00:02:52;;;;;;;34.67;20.90;;;17.10;99.90;;;;;;5015560;28;20033;-71
2021/06/27 00:05:20;;;;;;;31.65;19.63;;;17.20;99.90;;;;;;5015130;28;20125;-71
2021/06/27 00:07:47;;;;;;;34.28;21.45;;;17.20;99.90;;;;;;5015075;28;20394;-71
2021/06/27 00:10:18;;;;;;;33.17;21.63;;;17.20;99.90;;;;;;5014821;28;20073;-70
2021/06/27 00:12:44;;;;;;;28.55;18.92;;;17.20;99.90;;;;;;5015424;28;20042;-71
2021/06/27 00:15:16;;;;;;;32.42;19.92;;;17.10;99.90;;;;;;5014913;28;20088;-70
2021/06/27 00:17:43;;;;;;;34.55;20.77;;;17.10;99.90;;;;;;5015023;28;20038;-71
2021/06/27 00:20:12;;;;;;;33.95;20.67;;;17.00;99.90;;;;;;5014435;28;20121;-69
2021/06/27 00:22:38;;;;;;;31.27;20.38;;;17.00;99.90;;;;;;5015182;28;20117;-69
2021/06/27 00:25:08;;;;;;;33.00;20.58;;;17.00;99.90;;;;;;5013538;28;20116;-69
2021/06/27 00:27:34;;;;;;;31.58;19.58;;;17.00;99.90;;;;;;5015228;28;20073;-69
2021/06/27 00:30:00;;;;;;;34.63;21.52;;;17.00;99.90;;;;;;5014239;28;20482;-70
2021/06/27 00:32:26;;;;;;;34.60;21.52;;;17.00;99.90;;;;;;5014705;28;20034;-71
2021/06/27 00:34:51;;;;;;;29.92;19.85;;;16.90;99.90;;;;;;5014942;28;20037;-71
2021/06/27 00:37:17;;;;;;;33.45;19.80;;;16.90;99.90;;;;;;5014844;28;20059;-71
2021/06/27 00:39:43;;;;;;;31.88;20.02;;;17.00;99.90;;;;;;5014345;28;20042;-71
2021/06/27 00:42:08;;;;;;;28.70;20.10;;;17.00;99.90;;;;;;5014580;28;20049;-71
2021/06/27 00:44:34;;;;;;;32.80;20.00;;;16.90;99.90;;;;;;5014468;28;20468;-71
2021/06/27 00:47:00;;;;;;;28.00;18.35;;;16.80;99.90;;;;;;5014410;28;20037;-71
2021/06/27 00:49:25;;;;;;;37.20;20.95;;;16.90;99.90;;;;;;5014247;28;20136;-71
2021/06/27 00:51:51;;;;;;;32.35;20.63;;;16.90;99.90;;;;;;5014416;28;20069;-71
2021/06/27 00:54:17;;;;;;;36.40;21.58;;;16.80;99.90;;;;;;5014196;28;20501;-71
2021/06/27 00:56:45;;;;;;;32.75;20.77;;;16.80;99.90;;;;;;5014269;28;20045;-71
2021/06/27 00:59:12;;;;;;;32.88;20.40;;;16.80;99.90;;;;;;5013781;28;20120;-71
2021/06/27 01:01:37;;;;;;;34.97;20.90;;;16.70;99.90;;;;;;5014054;28;20038;-71
2021/06/27 01:04:03;;;;;;;29.17;19.52;;;16.70;99.90;;;;;;5014116;28;20038;-71
2021/06/27 01:06:29;;;;;;;32.75;20.10;;;16.70;99.90;;;;;;5014038;28;20076;-71
2021/06/27 01:08:55;;;;;;;28.17;18.85;;;16.70;99.90;;;;;;5013688;28;20437;-71
2021/06/27 01:11:21;;;;;;;32.75;19.58;;;16.70;99.90;;;;;;5014622;28;20124;-71
2021/06/27 01:13:47;;;;;;;32.50;20.92;;;16.60;99.90;;;;;;5014415;28;20446;-71
2021/06/27 01:16:12;;;;;;;31.40;19.90;;;16.70;99.90;;;;;;5014494;28;20467;-71
2021/06/27 01:18:38;;;;;;;30.90;19.98;;;16.70;99.90;;;;;;5013779;28;20045;-71
2021/06/27 01:21:07;;;;;;;33.35;19.70;;;16.70;99.90;;;;;;5013735;28;20453;-71
2021/06/27 01:23:33;;;;;;;34.30;20.77;;;16.70;99.90;;;;;;5014286;28;20042;-71
2021/06/27 01:25:59;;;;;;;32.47;20.65;;;16.80;99.90;;;;;;5014071;28;20044;-71
2021/06/27 01:28:25;;;;;;;32.22;19.92;;;16.60;99.90;;;;;;5014130;28;20088;-71
2021/06/27 01:30:52;;;;;;;36.58;20.38;;;16.60;99.90;;;;;;5013476;28;20057;-71
2021/06/27 01:33:21;;;;;;;35.25;21.45;;;16.60;99.90;;;;;;5013678;28;20045;-71
2021/06/27 01:35:48;;;;;;;35.65;21.20;;;16.50;99.90;;;;;;5013663;28;20040;-71
2021/06/27 01:38:15;;;;;;;35.97;21.23;;;16.50;99.90;;;;;;5013922;28;20065;-71
2021/06/27 01:40:42;;;;;;;36.72;21.77;;;16.60;99.90;;;;;;5013849;28;20045;-71
2021/06/27 01:43:22;;;;;;;32.80;21.27;;;16.60;99.90;;;;;;5013647;28;20383;-71
2021/06/27 01:45:53;;;;;;;33.55;20.52;;;16.50;99.90;;;;;;5013756;28;20405;-71
2021/06/27 01:48:19;;;;;;;32.58;20.70;;;16.50;99.90;;;;;;5012830;28;20057;-71
2021/06/27 01:50:48;;;;;;;37.25;21.73;;;16.40;99.90;;;;;;5013057;28;20517;-71
2021/06/27 01:53:16;;;;;;;38.97;22.90;;;16.40;99.90;;;;;;5013664;28;20042;-71
2021/06/27 01:55:43;;;;;;;32.95;21.55;;;16.40;99.90;;;;;;5012453;28;20041;-71
2021/06/27 01:58:09;;;;;;;38.55;22.48;;;16.40;99.90;;;;;;5013667;28;20042;-71
2021/06/27 02:00:36;;;;;;;35.75;22.33;;;16.40;99.90;;;;;;5013136;28;20132;-70
2021/06/27 02:03:03;;;;;;;38.60;22.85;;;16.30;99.90;;;;;;5013510;28;20038;-71
2021/06/27 02:05:29;;;;;;;36.22;22.02;;;16.30;99.90;;;;;;5013348;28;20061;-71
2021/06/27 02:07:58;;;;;;;32.95;21.48;;;16.40;99.90;;;;;;5013280;28;20038;-70
2021/06/27 02:10:25;;;;;;;36.22;21.95;;;16.40;99.90;;;;;;5012863;28;20060;-70
2021/06/27 02:12:52;;;;;;;37.75;22.50;;;16.40;99.90;;;;;;5013421;28;20041;-71
2021/06/27 02:15:19;;;;;;;39.65;22.13;;;16.40;99.90;;;;;;5013158;28;20038;-71
2021/06/27 02:17:54;;;;;;;35.70;23.27;;;16.50;99.90;;;;;;5013286;28;20505;-69
2021/06/27 02:20:20;;;;;;;36.42;22.70;;;16.40;99.90;;;;;;5012802;28;20049;-69
2021/06/27 02:22:47;;;;;;;35.28;21.88;;;16.40;99.90;;;;;;5013197;28;20504;-69
2021/06/27 02:25:14;;;;;;;39.60;23.15;;;16.30;99.90;;;;;;5016343;28;20042;-69
2021/06/27 02:27:40;;;;;;;38.35;22.48;;;16.30;99.90;;;;;;5017278;28;20042;-69
2021/06/27 02:30:09;;;;;;;37.40;23.17;;;16.20;99.90;;;;;;5016600;28;20046;-69
2021/06/27 02:32:35;;;;;;;34.20;21.70;;;16.10;99.90;;;;;;5017130;28;20041;-69
2021/06/27 02:35:01;;;;;;;36.83;20.40;;;16.20;99.90;;;;;;5017320;28;20034;-69
2021/06/27 02:37:27;;;;;;;35.50;22.15;;;16.20;99.90;;;;;;5017120;28;20120;-69
2021/06/27 02:39:53;;;;;;;35.85;21.75;;;16.20;99.90;;;;;;5016532;28;20046;-69
2021/06/27 02:42:20;;;;;;;34.70;22.08;;;16.10;99.90;;;;;;5016673;28;20041;-69
2021/06/27 02:44:47;;;;;;;34.30;20.58;;;16.20;99.90;;;;;;5016943;28;20038;-69
2021/06/27 02:47:16;;;;;;;34.38;21.83;;;16.20;99.90;;;;;;5016894;28;20045;-69
2021/06/27 02:49:43;;;;;;;40.25;23.00;;;16.10;99.90;;;;;;5016345;28;20065;-69
2021/06/27 02:52:09;;;;;;;40.13;23.95;;;16.10;99.90;;;;;;5016471;28;20117;-69
2021/06/27 02:54:35;;;;;;;50.78;26.35;;;16.10;99.90;;;;;;5016612;28;20041;-69
2021/06/27 02:57:01;;;;;;;52.28;27.48;;;16.00;99.90;;;;;;5016962;28;20049;-69
2021/06/27 02:59:27;;;;;;;51.72;28.95;;;15.90;99.90;;;;;;5016277;28;20402;-69
2021/06/27 03:01:53;;;;;;;50.17;28.48;;;15.90;99.90;;;;;;5015220;28;20466;-69
2021/06/27 03:04:19;;;;;;;56.70;30.33;;;15.90;99.90;;;;;;5016652;28;20048;-69
2021/06/27 03:06:45;;;;;;;62.28;30.70;;;15.90;99.90;;;;;;5016222;28;20482;-69
2021/06/27 03:09:12;;;;;;;52.85;30.05;;;16.00;99.90;;;;;;5016220;28;20112;-69
2021/06/27 03:11:38;;;;;;;57.35;30.98;;;15.90;99.90;;;;;;5016258;28;20087;-69
2021/06/27 03:14:04;;;;;;;46.42;27.20;;;16.00;99.90;;;;;;5015184;28;20125;-69
2021/06/27 03:16:30;;;;;;;42.03;25.42;;;16.00;99.90;;;;;;5016567;28;20049;-69
2021/06/27 03:18:56;;;;;;;42.15;23.35;;;15.90;99.90;;;;;;5015597;28;20406;-69
2021/06/27 03:21:22;;;;;;;44.90;27.05;;;16.00;99.90;;;;;;5015790;28;20487;-69
2021/06/27 03:23:48;;;;;;;40.63;24.20;;;15.90;99.90;;;;;;5015941;28;20038;-69
2021/06/27 03:26:15;;;;;;;40.22;24.20;;;15.90;99.90;;;;;;5016019;28;20048;-69
2021/06/27 03:28:43;;;;;;;39.22;23.25;;;15.90;99.90;;;;;;5015845;28;20121;-69
2021/06/27 03:31:09;;;;;;;40.75;24.15;;;15.90;99.90;;;;;;5015884;28;20038;-69
2021/06/27 03:33:35;;;;;;;39.55;23.17;;;15.90;99.90;;;;;;5015726;28;20044;-69
2021/06/27 03:36:01;;;;;;;38.22;22.42;;;15.90;99.90;;;;;;5014582;28;20482;-69
2021/06/27 03:38:42;;;;;;;43.45;25.52;;;16.00;99.90;;;;;;5015338;28;20040;-70
2021/06/27 03:41:09;;;;;;;35.35;22.85;;;16.00;99.90;;;;;;5015620;28;20042;-69
2021/06/27 03:43:35;;;;;;;43.25;25.00;;;16.00;99.90;;;;;;5014646;28;20141;-69
2021/06/27 03:46:01;;;;;;;38.88;23.77;;;15.90;99.90;;;;;;5015685;28;20048;-69
2021/06/27 03:48:26;;;;;;;45.95;24.48;;;15.90;99.90;;;;;;5015610;28;20409;-69
2021/06/27 03:50:52;;;;;;;42.20;23.77;;;15.90;99.90;;;;;;5015499;28;20554;-69
2021/06/27 03:53:18;;;;;;;44.45;24.33;;;15.90;99.90;;;;;;5015551;28;20048;-69
2021/06/27 03:55:44;;;;;;;40.40;23.88;;;15.80;99.90;;;;;;5015381;28;20066;-69
2021/06/27 03:58:10;;;;;;;45.80;26.02;;;15.90;99.90;;;;;;5015605;28;20046;-69
2021/06/27 04:00:37;;;;;;;51.28;29.75;;;15.90;99.90;;;;;;5015024;28;20077;-69
2021/06/27 04:03:03;;;;;;;59.78;31.92;;;16.00;99.90;;;;;;5015125;28;20038;-69
2021/06/27 04:05:29;;;;;;;58.58;32.47;;;16.00;99.90;;;;;;5015205;28;20037;-71
2021/06/27 04:07:55;;;;;;;54.95;28.92;;;16.00;99.90;;;;;;5015284;28;20049;-71
2021/06/27 04:10:21;;;;;;;46.72;28.08;;;16.10;99.90;;;;;;5014728;28;20041;-71
2021/06/27 04:12:46;;;;;;;59.22;29.73;;;16.10;99.90;;;;;;5015121;28;20533;-71
2021/06/27 04:15:12;;;;;;;54.35;29.63;;;16.10;99.90;;;;;;5014120;28;20140;-71
2021/06/27 04:17:38;;;;;;;53.33;29.90;;;16.20;99.90;;;;;;5015079;28;20038;-71
2021/06/27 04:20:07;;;;;;;45.40;25.55;;;16.20;99.90;;;;;;5014552;28;20093;-71
2021/06/27 04:22:33;;;;;;;46.25;26.75;;;16.20;99.90;;;;;;5015154;28;20038;-71
2021/06/27 04:25:01;;;;;;;50.22;28.58;;;16.20;99.90;;;;;;5013774;28;20034;-71
2021/06/27 04:27:27;;;;;;;40.33;25.60;;;16.20;99.90;;;;;;5014861;28;20498;-69
2021/06/27 04:29:52;;;;;;;39.75;23.75;;;16.20;99.90;;;;;;5014730;28;20125;-69
2021/06/27 04:32:18;;;;;;;46.45;23.63;;;16.20;99.90;;;;;;5015390;28;20046;-69
2021/06/27 04:34:44;;;;;;;38.67;22.70;;;16.30;99.90;;;;;;5015877;28;20030;-69
2021/06/27 04:37:10;;;;;;;35.70;21.83;;;16.30;99.90;;;;;;5013944;28;20045;-69
2021/06/27 04:39:36;;;;;;;34.28;20.58;;;16.40;99.90;;;;;;5014366;28;20069;-69
2021/06/27 04:42:02;;;;;;;37.17;20.58;;;16.40;99.90;;;;;;5016035;28;20068;-69
2021/06/27 04:44:28;;;;;;;35.03;21.35;;;16.50;99.90;;;;;;5014753;28;20038;-69
2021/06/27 04:46:54;;;;;;;36.22;22.13;;;16.50;99.90;;;;;;5014431;28;20558;-69
2021/06/27 04:49:19;;;;;;;37.63;22.23;;;16.60;99.90;;;;;;5014730;28;20045;-69
2021/06/27 04:51:45;;;;;;;41.92;22.08;;;16.60;99.90;;;;;;5014932;28;20410;-69
2021/06/27 04:54:11;;;;;;;37.90;21.88;;;16.80;99.90;;;;;;5014269;28;20406;-71
2021/06/27 04:56:36;;;;;;;33.50;20.20;;;16.80;99.90;;;;;;5014611;28;20046;-71
2021/06/27 04:59:03;;;;;;;36.78;20.85;;;17.10;99.90;;;;;;5014096;28;20050;-71
2021/06/27 05:01:28;;;;;;;29.35;19.20;;;17.20;99.90;;;;;;5014222;28;20034;-71
2021/06/27 05:03:54;;;;;;;31.55;19.38;;;17.20;99.90;;;;;;5014084;28;20107;-69
2021/06/27 05:06:20;;;;;;;30.63;20.02;;;17.40;99.90;;;;;;5014144;28;20038;-69
2021/06/27 05:08:45;;;;;;;35.95;20.73;;;17.40;99.90;;;;;;5013886;28;20049;-69
2021/06/27 05:11:11;;;;;;;31.38;20.65;;;17.40;99.90;;;;;;5013821;28;20401;-69
2021/06/27 05:13:37;;;;;;;30.17;20.13;;;17.50;99.90;;;;;;5013970;28;20060;-69
2021/06/27 05:16:02;;;;;;;34.80;20.48;;;17.60;99.90;;;;;;5012780;28;20117;-70
2021/06/27 05:18:28;;;;;;;31.88;19.48;;;17.60;99.90;;;;;;5013852;28;20049;-69
2021/06/27 05:20:54;;;;;;;26.83;18.10;;;17.50;99.90;;;;;;5014127;28;20045;-69
2021/06/27 05:23:20;;;;;;;30.88;19.20;;;17.70;99.90;;;;;;5013864;28;20057;-69
2021/06/27 05:25:45;;;;;;;32.40;19.55;;;17.80;99.90;;;;;;5013890;28;20064;-69
2021/06/27 05:28:11;;;;;;;29.63;18.60;;;17.80;99.90;;;;;;5013754;28;20040;-69
2021/06/27 05:30:38;;;;;;;33.50;19.55;;;18.00;99.90;;;;;;5013785;28;20076;-69
2021/06/27 05:33:04;;;;;;;29.45;19.48;;;18.20;99.90;;;;;;5013681;28;20038;-69
2021/06/27 05:35:30;;;;;;;25.80;17.95;;;18.30;99.90;;;;;;5013667;28;20038;-69
2021/06/27 05:37:55;;;;;;;26.90;17.55;;;18.50;99.90;;;;;;5013570;28;20124;-69
2021/06/27 05:40:21;;;;;;;24.35;16.98;;;18.50;99.90;;;;;;5013135;28;20037;-69
2021/06/27 05:42:47;;;;;;;26.38;17.20;;;18.50;99.90;;;;;;5013610;28;20128;-69
2021/06/27 05:45:13;;;;;;;26.95;17.20;;;18.40;99.90;;;;;;5013508;28;20454;-69
2021/06/27 05:47:39;;;;;;;27.75;19.40;;;18.70;99.90;;;;;;5013549;28;20068;-69
2021/06/27 05:50:05;;;;;;;24.48;17.35;;;18.50;99.90;;;;;;5013343;28;20050;-69
2021/06/27 05:52:31;;;;;;;25.23;16.67;;;18.60;99.90;;;;;;5013503;28;20165;-69
2021/06/27 05:54:56;;;;;;;22.13;15.45;;;18.70;99.90;;;;;;5013942;28;20045;-69
2021/06/27 05:57:22;;;;;;;27.75;17.35;;;18.70;99.90;;;;;;5013394;28;20045;-69
2021/06/27 05:59:50;;;;;;;24.65;17.30;;;18.80;99.90;;;;;;5014890;28;20046;-69
2021/06/27 06:02:15;;;;;;;24.58;16.75;;;18.90;99.90;;;;;;5017477;28;20044;-69
2021/06/27 06:04:41;;;;;;;26.00;16.65;;;18.90;99.90;;;;;;5017625;28;20129;-69
2021/06/27 06:07:07;;;;;;;23.80;16.65;;;19.00;99.90;;;;;;5017335;28;20049;-69
2021/06/27 06:09:32;;;;;;;24.75;17.27;;;18.90;99.90;;;;;;5017220;28;20046;-69
2021/06/27 06:11:58;;;;;;;22.73;17.33;;;18.90;99.90;;;;;;5017548;28;20037;-69
2021/06/27 06:14:24;;;;;;;23.35;15.50;;;18.80;99.90;;;;;;5017338;28;20038;-70
2021/06/27 06:16:49;;;;;;;19.90;14.82;;;18.90;99.90;;;;;;5017224;28;20449;-69
2021/06/27 06:19:18;;;;;;;22.38;15.77;;;18.80;99.90;;;;;;5016790;28;20548;-69
2021/06/27 06:21:45;;;;;;;21.58;14.18;;;18.80;99.90;;;;;;5017230;28;20034;-69
2021/06/27 06:24:11;;;;;;;18.83;14.57;;;18.90;99.90;;;;;;5017279;28;20042;-70
2021/06/27 06:26:37;;;;;;;19.70;15.13;;;18.70;99.90;;;;;;5017062;28;20505;-69
2021/06/27 06:29:04;;;;;;;17.83;13.63;;;18.90;99.90;;;;;;5016646;28;20521;-70
2021/06/27 06:31:30;;;;;;;18.05;12.63;;;18.90;99.90;;;;;;5016812;28;20073;-70
2021/06/27 06:33:56;;;;;;;19.38;14.82;;;19.00;99.90;;;;;;5017098;28;20030;-70
2021/06/27 06:36:22;;;;;;;17.35;12.85;;;18.90;99.90;;;;;;5017105;28;20048;-70
2021/06/27 06:38:47;;;;;;;19.65;13.88;;;19.10;99.90;;;;;;5016732;28;20042;-69
2021/06/27 06:41:13;;;;;;;18.65;12.27;;;19.30;99.90;;;;;;5016744;28;20041;-70
2021/06/27 06:43:38;;;;;;;17.65;13.02;;;19.80;99.90;;;;;;5016845;28;20038;-69
2021/06/27 06:46:04;;;;;;;16.70;11.88;;;19.90;99.90;;;;;;5016866;28;20045;-69
2021/06/27 06:48:30;;;;;;;18.05;13.63;;;20.10;99.90;;;;;;5015243;28;20046;-70
2021/06/27 06:50:55;;;;;;;16.42;12.13;;;20.50;99.90;;;;;;5016458;28;20077;-70
2021/06/27 06:53:21;;;;;;;14.90;11.77;;;20.70;99.90;;;;;;5016557;28;20497;-69
2021/06/27 06:55:47;;;;;;;14.90;11.68;;;20.90;99.90;;;;;;5016497;28;20088;-70
2021/06/27 06:58:12;;;;;;;17.55;13.23;;;20.80;99.90;;;;;;5016293;28;20521;-70
2021/06/27 07:00:39;;;;;;;17.42;12.93;;;20.60;99.90;;;;;;5016256;28;20042;-70
2021/06/27 07:03:05;;;;;;;16.90;12.35;;;20.60;99.90;;;;;;5016641;28;20043;-70
2021/06/27 07:05:30;;;;;;;17.13;12.15;;;20.80;99.90;;;;;;5016437;28;20052;-70
2021/06/27 07:07:56;;;;;;;17.67;12.93;;;20.80;99.90;;;;;;5015586;28;20070;-70
2021/06/27 07:10:22;;;;;;;16.67;12.93;;;20.80;99.90;;;;;;5015675;28;20044;-70
2021/06/27 07:12:48;;;;;;;18.08;12.90;;;20.90;99.90;;;;;;5016136;28;20069;-70
2021/06/27 07:15:15;;;;;;;24.00;14.20;;;21.10;99.90;;;;;;5016534;28;20527;-70
2021/06/27 07:17:41;;;;;;;14.90;11.25;;;21.40;99.90;;;;;;5016159;28;20041;-71
2021/06/27 07:20:08;;;;;;;16.77;12.00;;;21.80;99.40;;;;;;5015631;28;20050;-70
2021/06/27 07:22:35;;;;;;;16.83;12.93;;;22.10;98.70;;;;;;5015963;28;20045;-70
2021/06/27 07:25:01;;;;;;;17.73;12.27;;;22.20;97.90;;;;;;5016274;28;20034;-70
2021/06/27 07:27:27;;;;;;;20.70;13.25;;;22.20;97.60;;;;;;5016193;28;20095;-71
2021/06/27 07:29:52;;;;;;;18.98;13.00;;;21.90;97.30;;;;;;5015596;28;20046;-70
2021/06/27 07:32:18;;;;;;;19.00;12.18;;;21.90;97.40;;;;;;5015776;28;20405;-71
2021/06/27 07:34:44;;;;;;;17.88;14.18;;;21.90;97.80;;;;;;5015990;28;20049;-72
2021/06/27 07:37:09;;;;;;;18.73;13.15;;;21.80;97.80;;;;;;5015771;28;20042;-71
2021/06/27 07:39:35;;;;;;;18.23;12.50;;;22.20;97.20;;;;;;5015343;28;20042;-71
2021/06/27 07:42:01;;;;;;;16.90;13.25;;;22.30;96.40;;;;;;5015519;28;20052;-68
2021/06/27 07:44:26;;;;;;;19.67;13.70;;;22.50;96.60;;;;;;5015641;28;20033;-70
2021/06/27 07:46:52;;;;;;;20.58;15.35;;;22.40;96.40;;;;;;5014793;28;20050;-69
2021/06/27 07:49:18;;;;;;;21.63;14.48;;;21.90;97.00;;;;;;5015060;28;20053;-71
2021/06/27 07:51:44;;;;;;;18.55;14.45;;;21.90;97.80;;;;;;5015549;28;20096;-71
2021/06/27 07:54:09;;;;;;;18.92;14.15;;;21.70;97.80;;;;;;5014251;28;20049;-70
2021/06/27 07:56:35;;;;;;;21.90;13.65;;;21.60;98.40;;;;;;5015672;28;20060;-70
2021/06/27 07:59:01;;;;;;;19.70;13.60;;;21.70;98.00;;;;;;5014903;28;20514;-69
2021/06/27 08:01:27;;;;;;;21.45;14.48;;;21.60;98.10;;;;;;5015494;28;20490;-69
2021/06/27 08:03:52;;;;;;;19.63;14.13;;;21.50;98.50;;;;;;5015677;28;20038;-70
2021/06/27 08:06:18;;;;;;;19.85;15.73;;;21.90;98.20;;;;;;5015581;28;20488;-70
2021/06/27 08:08:44;;;;;;;18.90;14.55;;;22.10;97.90;;;;;;5015226;28;20048;-70
2021/06/27 08:11:10;;;;;;;20.30;15.68;;;22.20;97.30;;;;;;5013928;28;20040;-70
2021/06/27 08:13:36;;;;;;;17.50;13.70;;;21.90;97.40;;;;;;5015173;28;20037;-69
2021/06/27 08:16:02;;;;;;;19.30;16.33;;;22.20;97.30;;;;;;5015127;28;20513;-69
2021/06/27 08:18:28;;;;;;;20.25;14.77;;;22.20;96.70;;;;;;5014615;28;20038;-71
2021/06/27 08:20:54;;;;;;;20.17;15.57;;;22.40;96.60;;;;;;5015353;28;20387;-71
2021/06/27 08:23:22;;;;;;;18.45;14.52;;;22.10;96.80;;;;;;5014070;28;20041;-71
2021/06/27 08:25:48;;;;;;;19.25;14.85;;;22.40;96.30;;;;;;5014812;28;20406;-71
2021/06/27 08:28:15;;;;;;;20.10;14.63;;;22.60;96.00;;;;;;5014828;28;20037;-71
2021/06/27 08:30:40;;;;;;;19.52;14.80;;;22.90;95.10;;;;;;5014185;28;20450;-71
2021/06/27 08:33:06;;;;;;;19.17;15.35;;;22.80;95.20;;;;;;5014637;28;20065;-71
2021/06/27 08:35:33;;;;;;;17.23;14.23;;;22.80;95.30;;;;;;5014568;28;20038;-71
2021/06/27 08:37:58;;;;;;;18.20;13.93;;;23.10;95.00;;;;;;5014558;28;20099;-71
2021/06/27 08:40:24;;;;;;;18.15;14.45;;;23.40;94.40;;;;;;5014046;28;20522;-70
2021/06/27 08:42:51;;;;;;;16.95;14.60;;;23.50;93.80;;;;;;5014623;28;20072;-70
2021/06/27 08:45:17;;;;;;;18.70;13.88;;;23.40;93.60;;;;;;5014839;28;20042;-70
2021/06/27 08:47:44;;;;;;;16.92;14.32;;;23.30;94.40;;;;;;5014575;28;20085;-70
2021/06/27 08:50:13;;;;;;;19.70;15.13;;;23.70;93.80;;;;;;5014019;28;20546;-71
2021/06/27 08:52:41;;;;;;;18.73;14.50;;;23.70;93.80;;;;;;5014719;28;20042;-70
2021/06/27 08:55:07;;;;;;;19.17;14.20;;;23.80;93.50;;;;;;5014495;28;20042;-70
2021/06/27 08:57:35;;;;;;;17.10;14.05;;;23.90;93.80;;;;;;5014695;28;20041;-70
2021/06/27 09:00:02;;;;;;;18.88;15.85;;;23.70;94.00;;;;;;5013623;28;20046;-69
2021/06/27 09:02:29;;;;;;;20.45;16.25;;;23.70;94.20;;;;;;5014503;28;20042;-68
2021/06/27 09:04:55;;;;;;;20.98;16.70;;;23.90;93.60;;;;;;5014228;28;20421;-69
2021/06/27 09:07:45;;;;;;;19.60;15.18;;;23.70;93.90;;;;;;5014269;28;20038;-70
2021/06/27 09:10:17;;;;;;;17.38;14.35;;;23.90;93.10;;;;;;5013864;28;20037;-70
2021/06/27 09:12:58;;;;;;;18.50;14.80;;;24.00;92.80;;;;;;5014426;28;20045;-71
2021/06/27 09:15:38;;;;;;;20.33;15.20;;;24.20;92.30;;;;;;5012948;28;20033;-71
2021/06/27 09:18:21;;;;;;;15.45;13.43;;;24.10;92.80;;;;;;5012892;28;20117;-69
2021/06/27 09:20:56;;;;;;;19.15;14.82;;;24.30;92.10;;;;;;5013760;28;20038;-70
2021/06/27 09:23:35;;;;;;;20.60;15.75;;;24.50;91.50;;;;;;5013965;28;20038;-70
2021/06/27 09:26:01;;;;;;;16.85;14.48;;;24.70;91.00;;;;;;5013830;28;20045;-71
2021/06/27 09:28:49;;;;;;;16.77;14.23;;;24.30;91.50;;;;;;5013781;28;20038;-72
2021/06/27 09:31:44;;;;;;;16.67;14.88;;;24.00;91.90;;;;;;5014210;28;20056;-72
2021/06/27 09:34:12;;;;;;;15.52;13.10;;;24.30;91.70;;;;;;5003507;28;20168;-71
2021/06/27 09:36:50;;;;;;;18.10;14.45;;;24.40;91.80;;;;;;5013650;28;20120;-72
2021/06/27 09:39:18;;;;;;;18.58;13.02;;;24.60;90.90;;;;;;5013700;28;20045;-73
2021/06/27 09:41:53;;;;;;;15.18;12.90;;;24.50;91.40;;;;;;5013974;28;20041;-71
2021/06/27 09:44:20;;;;;;;20.73;14.35;;;24.40;91.50;;;;;;5012272;28;20044;-71
2021/06/27 09:46:56;;;;;;;15.20;11.82;;;24.40;91.30;;;;;;5013791;28;20077;-71
2021/06/27 09:49:24;;;;;;;14.93;12.02;;;24.50;91.60;;;;;;5013304;28;20045;-72
2021/06/27 09:51:56;;;;;;;16.77;12.88;;;24.40;91.50;;;;;;5012536;28;20034;-71
2021/06/27 09:54:24;;;;;;;15.52;13.55;;;24.40;91.00;;;;;;5013723;28;20092;-71
2021/06/27 09:56:50;;;;;;;19.60;14.70;;;24.30;90.50;;;;;;5013477;28;20555;-70
2021/06/27 09:59:36;;;;;;;15.63;12.93;;;24.30;90.90;;;;;;5013176;28;20049;-70
2021/06/27 10:02:02;;;;;;;17.10;12.73;;;24.20;91.90;;;;;;5013461;28;20073;-71
2021/06/27 10:04:34;;;;;;;17.13;13.02;;;24.10;91.90;;;;;;5013648;28;20053;-71
2021/06/27 10:07:02;;;;;;;16.95;14.25;;;24.00;92.20;;;;;;5013318;28;20149;-71
2021/06/27 10:09:29;;;;;;;16.13;13.13;;;24.00;91.70;;;;;;5013128;28;20053;-72
2021/06/27 10:12:10;;;;;;;15.43;12.55;;;24.00;92.30;;;;;;5013210;28;20041;-72
2021/06/27 10:14:49;;;;;;;15.85;13.80;;;24.00;92.70;;;;;;5013368;28;20046;-71
2021/06/27 10:17:16;;;;;;;19.08;15.10;;;23.90;92.50;;;;;;5013578;28;20093;-72
2021/06/27 10:19:43;;;;;;;18.77;14.35;;;23.90;92.40;;;;;;5012843;28;20069;-71
2021/06/27 10:22:09;;;;;;;17.90;13.43;;;24.20;92.40;;;;;;5013074;28;20038;-71
2021/06/27 10:24:34;;;;;;;14.68;12.32;;;24.50;92.20;;;;;;5013185;28;20100;-71
2021/06/27 10:27:00;;;;;;;18.13;13.45;;;24.30;92.20;;;;;;5013307;28;20092;-70
2021/06/27 10:29:26;;;;;;;17.05;13.77;;;24.30;90.90;;;;;;5012824;28;20064;-70
2021/06/27 10:31:54;;;;;;;17.25;12.65;;;24.20;90.90;;;;;;5012935;28;20042;-69
2021/06/27 10:34:21;;;;;;;16.85;12.88;;;24.30;90.90;;;;;;5013120;28;20458;-69
2021/06/27 10:36:57;;;;;;;17.83;14.00;;;24.20;91.40;;;;;;5013465;28;20033;-72
2021/06/27 10:39:24;;;;;;;12.95;11.63;;;23.90;91.60;;;;;;5013336;28;20038;-71
2021/06/27 10:41:50;;;;;;;18.55;13.05;;;23.90;92.30;;;;;;5013114;28;20478;-71
2021/06/27 10:44:17;;;;;;;17.42;12.07;;;23.90;91.90;;;;;;5011978;28;20046;-71
2021/06/27 10:46:51;;;;;;;14.98;12.18;;;23.80;92.60;;;;;;5016593;28;20038;-70
2021/06/27 10:49:34;;;;;;;21.73;12.88;;;23.80;91.80;;;;;;5016374;28;20054;-69
2021/06/27 10:52:06;;;;;;;19.52;11.90;;;23.80;91.50;;;;;;5016630;28;20038;-68
2021/06/27 10:54:39;;;;;;;16.65;12.75;;;23.80;92.10;;;;;;5017003;28;20049;-71
2021/06/27 10:57:10;;;;;;;20.00;13.45;;;23.80;91.50;;;;;;5016873;28;20116;-71
2021/06/27 10:59:38;;;;;;;14.77;12.32;;;23.80;91.80;;;;;;5016232;28;20046;-68
2021/06/27 11:02:23;;;;;;;12.73;11.13;;;24.00;91.40;;;;;;5016508;28;20096;-67
2021/06/27 11:04:52;;;;;;;14.82;11.32;;;24.20;91.40;;;;;;5015564;28;20494;-68
2021/06/27 11:07:45;;;;;;;15.95;11.30;;;24.20;91.10;;;;;;5016075;28;20504;-68
2021/06/27 11:10:27;;;;;;;13.65;11.10;;;24.30;91.20;;;;;;5015822;28;20042;-69
2021/06/27 11:12:56;;;;;;;14.38;11.20;;;24.40;91.30;;;;;;5015157;28;20398;-69
2021/06/27 11:15:30;;;;;;;18.35;12.00;;;24.40;91.00;;;;;;5016558;28;20045;-69
2021/06/27 11:17:58;;;;;;;37.67;13.30;;;24.30;90.70;;;;;;5016746;28;20048;-68
2021/06/27 11:20:27;;;;;;;12.70;11.10;;;24.20;91.30;;;;;;5016162;28;20045;-69
2021/06/27 11:22:56;;;;;;;13.68;11.88;;;24.10;91.80;;;;;;5015370;28;20100;-68
2021/06/27 11:25:34;;;;;;;11.63;10.43;;;23.70;92.30;;;;;;5016199;28;20374;-69
2021/06/27 11:28:21;;;;;;;15.23;11.77;;;24.00;91.70;;;;;;5015882;28;20117;-68
2021/06/27 11:30:52;;;;;;;12.75;10.02;;;23.90;91.30;;;;;;5008859;28;20058;-68
2021/06/27 11:33:20;;;;;;;12.98;10.93;;;24.10;91.30;;;;;;5015907;28;20120;-68
2021/06/27 11:35:47;;;;;;;12.77;10.50;;;24.20;91.30;;;;;;5016101;28;20046;-68
2021/06/27 11:38:34;;;;;;;12.55;10.55;;;24.10;91.20;;;;;;5015674;28;20570;-68
2021/06/27 11:41:00;;;;;;;13.05;11.13;;;24.20;90.40;;;;;;5015626;28;20360;-69
2021/06/27 11:43:57;;;;;;;14.15;11.68;;;24.20;91.20;;;;;;5015672;28;20204;-68
2021/06/27 11:46:38;;;;;;;11.85;10.32;;;24.20;90.90;;;;;;5015689;28;20069;-68
2021/06/27 11:49:13;;;;;;;14.40;11.48;;;24.20;91.30;;;;;;5015283;28;20050;-69
2021/06/27 11:51:38;;;;;;;13.70;10.50;;;24.20;91.50;;;;;;5015374;28;20054;-70
2021/06/27 11:54:05;;;;;;;13.35;10.05;;;24.20;91.60;;;;;;5015366;28;20121;-69
2021/06/27 11:56:53;;;;;;;10.73;9.63;;;24.30;91.30;;;;;;5014408;28;20092;-68
2021/06/27 11:59:25;;;;;;;11.88;10.50;;;24.40;91.10;;;;;;5014917;28;20548;-69
2021/06/27 12:02:10;;;;;;;13.20;9.57;;;24.20;91.40;;;;;;5016155;28;20109;-68
2021/06/27 12:04:52;;;;;;;13.68;10.45;;;24.40;90.60;;;;;;5015177;28;20046;-69
2021/06/27 12:07:25;;;;;;;12.45;9.45;;;24.40;90.10;;;;;;5015128;28;20045;-69
2021/06/27 12:09:54;;;;;;;11.43;9.70;;;24.20;90.80;;;;;;5014690;28;20064;-70
2021/06/27 12:12:59;;;;;;;10.80;8.80;;;24.10;91.50;;;;;;5015043;28;20038;-68
2021/06/27 12:15:35;;;;;;;11.52;9.02;;;24.20;90.20;;;;;;4974141;28;20526;-69
2021/06/27 12:18:13;;;;;;;12.75;9.85;;;24.40;89.20;;;;;;5009910;28;20506;-68
2021/06/27 12:20:46;;;;;;;12.20;10.13;;;24.40;86.30;;;;;;5029788;28;20052;-68
2021/06/27 12:23:31;;;;;;;19.25;11.27;;;24.30;86.80;;;;;;5014781;28;20038;-69
2021/06/27 12:26:10;;;;;;;10.73;9.60;;;24.30;87.60;;;;;;5015384;28;20046;-68
2021/06/27 12:28:49;;;;;;;12.60;9.05;;;24.20;89.20;;;;;;5014782;28;20486;-69
2021/06/27 12:31:26;;;;;;;10.88;9.65;;;24.20;90.10;;;;;;5014357;28;20042;-68
2021/06/27 12:33:58;;;;;;;17.80;11.10;;;24.20;90.20;;;;;;5014892;28;20038;-70